sensor_id;sensor_type;location;lat;lon;timestamp;P1;durP1;ratioP1;P2;durP2;ratioP2
71236;SDS011;58984;51.960;5.582;2023-10-09T00:00:14;22.60;;;13.82;;
71236;SDS011;58984;51.960;5.582;2023-10-09T00:03:15;23.33;;;13.63;;
71236;SDS011;58984;51.960;5.582;2023-10-09T00:05:44;27.10;;;14.23;;
71236;SDS011;58984;51.960;5.582;2023-10-09T00:08:09;25.65;;;14.05;;
71236;SDS011;58984;51.960;5.582;2023-10-09T00:10:58;24.10;;;14.20;;
71236;SDS011;58984;51.960;5.582;2023-10-09T00:13:38;26.63;;;14.82;;
71236;SDS011;58984;51.960;5.582;2023-10-09T00:16:13;26.00;;;15.07;;
71236;SDS011;58984;51.960;5.582;2023-10-09T00:18:48;27.88;;;15.88;;
71236;SDS011;58984;51.960;5.582;2023-10-09T00:21:17;27.92;;;15.57;;
71236;SDS011;58984;51.960;5.582;2023-10-09T00:23:47;35.97;;;17.27;;
71236;SDS011;58984;51.960;5.582;2023-10-09T00:26:24;31.50;;;17.17;;
71236;SDS011;58984;51.960;5.582;2023-10-09T00:28:50;31.45;;;17.77;;
71236;SDS011;58984;51.960;5.582;2023-10-09T00:31:16;28.52;;;16.98;;
71236;SDS011;58984;51.960;5.582;2023-10-09T00:33:52;27.40;;;17.58;;
71236;SDS011;58984;51.960;5.582;2023-10-09T00:36:19;27.52;;;18.38;;
71236;SDS011;58984;51.960;5.582;2023-10-09T00:38:52;32.08;;;16.35;;
71236;SDS011;58984;51.960;5.582;2023-10-09T00:41:18;27.75;;;17.08;;
71236;SDS011;58984;51.960;5.582;2023-10-09T00:44:01;27.00;;;17.27;;
71236;SDS011;58984;51.960;5.582;2023-10-09T00:46:32;26.83;;;15.83;;
71236;SDS011;58984;51.960;5.582;2023-10-09T00:48:59;25.73;;;16.73;;
71236;SDS011;58984;51.960;5.582;2023-10-09T00:51:27;32.33;;;18.23;;
71236;SDS011;58984;51.960;5.582;2023-10-09T00:54:00;26.63;;;17.10;;
71236;SDS011;58984;51.960;5.582;2023-10-09T00:56:39;31.52;;;18.65;;
71236;SDS011;58984;51.960;5.582;2023-10-09T00:59:08;29.20;;;19.13;;
71236;SDS011;58984;51.960;5.582;2023-10-09T01:01:45;33.25;;;20.67;;
71236;SDS011;58984;51.960;5.582;2023-10-09T01:04:24;33.58;;;20.75;;
71236;SDS011;58984;51.960;5.582;2023-10-09T01:06:53;36.55;;;21.67;;
71236;SDS011;58984;51.960;5.582;2023-10-09T01:09:55;35.30;;;21.48;;
71236;SDS011;58984;51.960;5.582;2023-10-09T01:12:20;30.67;;;21.08;;
71236;SDS011;58984;51.960;5.582;2023-10-09T01:14:46;31.45;;;20.58;;
71236;SDS011;58984;51.960;5.582;2023-10-09T01:17:20;31.08;;;20.23;;
71236;SDS011;58984;51.960;5.582;2023-10-09T01:20:00;33.08;;;20.00;;
71236;SDS011;58984;51.960;5.582;2023-10-09T01:22:29;33.88;;;20.20;;
71236;SDS011;58984;51.960;5.582;2023-10-09T01:24:54;32.63;;;20.23;;
71236;SDS011;58984;51.960;5.582;2023-10-09T01:27:20;28.83;;;19.15;;
71236;SDS011;58984;51.960;5.582;2023-10-09T01:29:49;32.17;;;19.02;;
71236;SDS011;58984;51.960;5.582;2023-10-09T01:32:16;30.90;;;18.00;;
71236;SDS011;58984;51.960;5.582;2023-10-09T01:34:44;32.25;;;17.80;;
71236;SDS011;58984;51.960;5.582;2023-10-09T01:37:14;30.55;;;17.23;;
71236;SDS011;58984;51.960;5.582;2023-10-09T01:39:48;28.35;;;17.13;;
71236;SDS011;58984;51.960;5.582;2023-10-09T01:42:16;24.85;;;17.60;;
71236;SDS011;58984;51.960;5.582;2023-10-09T01:45:10;27.88;;;16.77;;
71236;SDS011;58984;51.960;5.582;2023-10-09T01:47:36;29.10;;;16.10;;
71236;SDS011;58984;51.960;5.582;2023-10-09T01:50:03;27.17;;;16.08;;
71236;SDS011;58984;51.960;5.582;2023-10-09T01:52:30;29.27;;;16.27;;
71236;SDS011;58984;51.960;5.582;2023-10-09T01:54:56;26.48;;;16.85;;
71236;SDS011;58984;51.960;5.582;2023-10-09T01:57:28;22.73;;;14.98;;
71236;SDS011;58984;51.960;5.582;2023-10-09T01:59:55;27.67;;;14.82;;
71236;SDS011;58984;51.960;5.582;2023-10-09T02:02:24;26.90;;;15.45;;
71236;SDS011;58984;51.960;5.582;2023-10-09T02:05:05;23.25;;;14.40;;
71236;SDS011;58984;51.960;5.582;2023-10-09T02:07:40;22.77;;;15.18;;
71236;SDS011;58984;51.960;5.582;2023-10-09T02:10:06;23.27;;;14.90;;
71236;SDS011;58984;51.960;5.582;2023-10-09T02:12:52;24.02;;;13.70;;
71236;SDS011;58984;51.960;5.582;2023-10-09T02:15:22;24.35;;;13.73;;
71236;SDS011;58984;51.960;5.582;2023-10-09T02:18:15;22.60;;;15.23;;
71236;SDS011;58984;51.960;5.582;2023-10-09T02:20:46;22.13;;;13.18;;
71236;SDS011;58984;51.960;5.582;2023-10-09T02:23:13;20.05;;;13.05;;
71236;SDS011;58984;51.960;5.582;2023-10-09T02:25:42;26.63;;;13.55;;
71236;SDS011;58984;51.960;5.582;2023-10-09T02:28:10;19.80;;;12.88;;
71236;SDS011;58984;51.960;5.582;2023-10-09T02:30:45;21.33;;;12.70;;
71236;SDS011;58984;51.960;5.582;2023-10-09T02:33:15;21.02;;;13.20;;
71236;SDS011;58984;51.960;5.582;2023-10-09T02:35:45;22.35;;;12.80;;
71236;SDS011;58984;51.960;5.582;2023-10-09T02:38:16;22.17;;;13.00;;
71236;SDS011;58984;51.960;5.582;2023-10-09T02:40:42;18.88;;;12.63;;
71236;SDS011;58984;51.960;5.582;2023-10-09T02:43:27;26.73;;;12.68;;
71236;SDS011;58984;51.960;5.582;2023-10-09T02:48:31;21.80;;;13.05;;
71236;SDS011;58984;51.960;5.582;2023-10-09T02:51:01;19.77;;;11.45;;
71236;SDS011;58984;51.960;5.582;2023-10-09T02:53:27;21.70;;;12.20;;
71236;SDS011;58984;51.960;5.582;2023-10-09T02:56:00;21.10;;;11.13;;
71236;SDS011;58984;51.960;5.582;2023-10-09T02:58:37;21.45;;;11.65;;
71236;SDS011;58984;51.960;5.582;2023-10-09T03:01:08;21.88;;;12.45;;
71236;SDS011;58984;51.960;5.582;2023-10-09T03:03:35;18.98;;;11.52;;
71236;SDS011;58984;51.960;5.582;2023-10-09T03:06:03;16.98;;;11.45;;
71236;SDS011;58984;51.960;5.582;2023-10-09T03:08:35;16.58;;;10.55;;
71236;SDS011;58984;51.960;5.582;2023-10-09T03:11:02;19.73;;;10.90;;
71236;SDS011;58984;51.960;5.582;2023-10-09T03:13:27;16.52;;;10.50;;
71236;SDS011;58984;51.960;5.582;2023-10-09T03:15:53;22.25;;;10.90;;
71236;SDS011;58984;51.960;5.582;2023-10-09T03:18:19;19.23;;;11.55;;
71236;SDS011;58984;51.960;5.582;2023-10-09T03:20:45;15.55;;;10.75;;
71236;SDS011;58984;51.960;5.582;2023-10-09T03:23:11;19.33;;;11.13;;
71236;SDS011;58984;51.960;5.582;2023-10-09T03:25:39;17.02;;;10.40;;
71236;SDS011;58984;51.960;5.582;2023-10-09T03:30:33;18.95;;;11.32;;
71236;SDS011;58984;51.960;5.582;2023-10-09T03:32:59;20.23;;;10.43;;
71236;SDS011;58984;51.960;5.582;2023-10-09T03:35:27;17.80;;;10.88;;
71236;SDS011;58984;51.960;5.582;2023-10-09T03:37:56;16.38;;;10.45;;
71236;SDS011;58984;51.960;5.582;2023-10-09T03:40:25;14.75;;;10.55;;
71236;SDS011;58984;51.960;5.582;2023-10-09T03:42:51;18.45;;;10.40;;
71236;SDS011;58984;51.960;5.582;2023-10-09T03:45:17;19.02;;;10.25;;
71236;SDS011;58984;51.960;5.582;2023-10-09T03:47:51;17.73;;;10.68;;
71236;SDS011;58984;51.960;5.582;2023-10-09T03:50:22;21.60;;;10.30;;
71236;SDS011;58984;51.960;5.582;2023-10-09T03:53:04;14.75;;;10.38;;
71236;SDS011;58984;51.960;5.582;2023-10-09T03:55:36;17.88;;;10.07;;
71236;SDS011;58984;51.960;5.582;2023-10-09T03:58:03;13.65;;;9.05;;
71236;SDS011;58984;51.960;5.582;2023-10-09T04:00:29;16.02;;;9.60;;
71236;SDS011;58984;51.960;5.582;2023-10-09T04:02:55;16.67;;;10.48;;
71236;SDS011;58984;51.960;5.582;2023-10-09T04:05:22;13.10;;;10.18;;
71236;SDS011;58984;51.960;5.582;2023-10-09T04:07:51;13.02;;;9.35;;
71236;SDS011;58984;51.960;5.582;2023-10-09T04:10:22;14.75;;;9.70;;
71236;SDS011;58984;51.960;5.582;2023-10-09T04:13:06;13.80;;;9.07;;
71236;SDS011;58984;51.960;5.582;2023-10-09T04:15:35;12.27;;;8.45;;
71236;SDS011;58984;51.960;5.582;2023-10-09T04:18:01;12.85;;;7.93;;
71236;SDS011;58984;51.960;5.582;2023-10-09T04:20:28;14.57;;;8.32;;
71236;SDS011;58984;51.960;5.582;2023-10-09T04:22:54;13.80;;;8.02;;
71236;SDS011;58984;51.960;5.582;2023-10-09T04:25:29;14.48;;;8.30;;
71236;SDS011;58984;51.960;5.582;2023-10-09T04:28:05;10.93;;;7.63;;
71236;SDS011;58984;51.960;5.582;2023-10-09T04:30:49;11.38;;;7.55;;
71236;SDS011;58984;51.960;5.582;2023-10-09T04:33:23;13.63;;;7.25;;
71236;SDS011;58984;51.960;5.582;2023-10-09T04:35:55;10.65;;;6.90;;
71236;SDS011;58984;51.960;5.582;2023-10-09T04:38:49;10.65;;;7.18;;
71236;SDS011;58984;51.960;5.582;2023-10-09T04:41:31;8.52;;;6.85;;
71236;SDS011;58984;51.960;5.582;2023-10-09T04:43:59;9.10;;;6.95;;
71236;SDS011;58984;51.960;5.582;2023-10-09T04:46:50;14.07;;;7.18;;
71236;SDS011;58984;51.960;5.582;2023-10-09T04:49:49;10.68;;;6.32;;
71236;SDS011;58984;51.960;5.582;2023-10-09T04:52:26;9.77;;;7.28;;
71236;SDS011;58984;51.960;5.582;2023-10-09T04:54:55;12.60;;;7.32;;
71236;SDS011;58984;51.960;5.582;2023-10-09T04:57:37;12.48;;;6.95;;
71236;SDS011;58984;51.960;5.582;2023-10-09T05:02:54;9.60;;;6.63;;
71236;SDS011;58984;51.960;5.582;2023-10-09T05:05:21;10.68;;;6.93;;
71236;SDS011;58984;51.960;5.582;2023-10-09T05:08:05;10.32;;;7.70;;
71236;SDS011;58984;51.960;5.582;2023-10-09T05:11:03;9.35;;;6.97;;
71236;SDS011;58984;51.960;5.582;2023-10-09T05:18:40;8.90;;;6.20;;
71236;SDS011;58984;51.960;5.582;2023-10-09T05:21:07;8.40;;;6.03;;
71236;SDS011;58984;51.960;5.582;2023-10-09T05:23:41;9.38;;;6.05;;
71236;SDS011;58984;51.960;5.582;2023-10-09T05:26:16;9.48;;;6.15;;
71236;SDS011;58984;51.960;5.582;2023-10-09T05:29:00;10.95;;;6.65;;
71236;SDS011;58984;51.960;5.582;2023-10-09T05:31:43;10.40;;;6.60;;
71236;SDS011;58984;51.960;5.582;2023-10-09T05:34:25;9.98;;;5.93;;
71236;SDS011;58984;51.960;5.582;2023-10-09T05:37:05;8.63;;;6.03;;
71236;SDS011;58984;51.960;5.582;2023-10-09T05:39:47;10.30;;;6.20;;
71236;SDS011;58984;51.960;5.582;2023-10-09T05:42:27;10.05;;;6.57;;
71236;SDS011;58984;51.960;5.582;2023-10-09T05:45:14;10.35;;;6.50;;
71236;SDS011;58984;51.960;5.582;2023-10-09T05:47:50;11.00;;;5.93;;
71236;SDS011;58984;51.960;5.582;2023-10-09T05:50:42;10.60;;;6.03;;
71236;SDS011;58984;51.960;5.582;2023-10-09T05:53:26;8.15;;;6.00;;
71236;SDS011;58984;51.960;5.582;2023-10-09T05:56:10;8.02;;;5.70;;
71236;SDS011;58984;51.960;5.582;2023-10-09T05:58:55;10.60;;;6.00;;
71236;SDS011;58984;51.960;5.582;2023-10-09T06:01:40;7.63;;;5.57;;
71236;SDS011;58984;51.960;5.582;2023-10-09T06:04:23;10.05;;;5.70;;
71236;SDS011;58984;51.960;5.582;2023-10-09T06:07:18;9.02;;;5.88;;
71236;SDS011;58984;51.960;5.582;2023-10-09T06:09:48;11.32;;;5.90;;
71236;SDS011;58984;51.960;5.582;2023-10-09T06:12:23;8.25;;;5.32;;
71236;SDS011;58984;51.960;5.582;2023-10-09T06:14:57;8.93;;;5.70;;
71236;SDS011;58984;51.960;5.582;2023-10-09T06:17:29;10.27;;;5.40;;
71236;SDS011;58984;51.960;5.582;2023-10-09T06:20:08;9.30;;;5.57;;
71236;SDS011;58984;51.960;5.582;2023-10-09T06:22:54;6.72;;;5.53;;
71236;SDS011;58984;51.960;5.582;2023-10-09T06:25:22;7.85;;;5.55;;
71236;SDS011;58984;51.960;5.582;2023-10-09T06:27:57;12.32;;;6.07;;
71236;SDS011;58984;51.960;5.582;2023-10-09T06:30:23;9.23;;;5.70;;
71236;SDS011;58984;51.960;5.582;2023-10-09T06:32:49;11.85;;;6.60;;
71236;SDS011;58984;51.960;5.582;2023-10-09T06:35:16;10.68;;;6.05;;
71236;SDS011;58984;51.960;5.582;2023-10-09T06:37:55;6.55;;;5.53;;
71236;SDS011;58984;51.960;5.582;2023-10-09T06:40:28;9.98;;;6.15;;
71236;SDS011;58984;51.960;5.582;2023-10-09T06:43:12;13.48;;;6.47;;
71236;SDS011;58984;51.960;5.582;2023-10-09T06:45:42;8.90;;;6.18;;
71236;SDS011;58984;51.960;5.582;2023-10-09T06:48:11;9.65;;;5.88;;
71236;SDS011;58984;51.960;5.582;2023-10-09T06:50:55;10.65;;;6.15;;
71236;SDS011;58984;51.960;5.582;2023-10-09T06:53:46;9.32;;;5.97;;
71236;SDS011;58984;51.960;5.582;2023-10-09T06:56:18;10.45;;;6.53;;
71236;SDS011;58984;51.960;5.582;2023-10-09T06:58:57;10.77;;;6.70;;
71236;SDS011;58984;51.960;5.582;2023-10-09T07:01:26;8.57;;;5.78;;
71236;SDS011;58984;51.960;5.582;2023-10-09T07:03:52;11.07;;;6.15;;
71236;SDS011;58984;51.960;5.582;2023-10-09T07:06:18;9.05;;;5.78;;
71236;SDS011;58984;51.960;5.582;2023-10-09T07:11:35;6.50;;;5.32;;
71236;SDS011;58984;51.960;5.582;2023-10-09T07:14:05;8.73;;;5.57;;
71236;SDS011;58984;51.960;5.582;2023-10-09T07:16:32;6.80;;;4.90;;
71236;SDS011;58984;51.960;5.582;2023-10-09T07:19:06;6.40;;;5.35;;
71236;SDS011;58984;51.960;5.582;2023-10-09T07:21:55;10.07;;;5.20;;
71236;SDS011;58984;51.960;5.582;2023-10-09T07:24:20;8.05;;;5.85;;
71236;SDS011;58984;51.960;5.582;2023-10-09T07:27:02;7.50;;;5.25;;
71236;SDS011;58984;51.960;5.582;2023-10-09T07:29:35;7.18;;;5.03;;
71236;SDS011;58984;51.960;5.582;2023-10-09T07:32:12;5.68;;;4.78;;
71236;SDS011;58984;51.960;5.582;2023-10-09T07:34:46;8.05;;;5.10;;
71236;SDS011;58984;51.960;5.582;2023-10-09T07:37:25;8.45;;;4.65;;
71236;SDS011;58984;51.960;5.582;2023-10-09T07:39:56;9.13;;;4.82;;
71236;SDS011;58984;51.960;5.582;2023-10-09T07:42:22;8.82;;;5.32;;
71236;SDS011;58984;51.960;5.582;2023-10-09T07:45:06;6.78;;;5.38;;
71236;SDS011;58984;51.960;5.582;2023-10-09T07:47:47;8.23;;;5.10;;
71236;SDS011;58984;51.960;5.582;2023-10-09T07:50:27;9.50;;;7.47;;
71236;SDS011;58984;51.960;5.582;2023-10-09T07:53:08;11.88;;;6.55;;
71236;SDS011;58984;51.960;5.582;2023-10-09T07:55:43;11.13;;;7.03;;
71236;SDS011;58984;51.960;5.582;2023-10-09T07:58:19;13.13;;;7.15;;
71236;SDS011;58984;51.960;5.582;2023-10-09T08:00:50;13.85;;;7.97;;
71236;SDS011;58984;51.960;5.582;2023-10-09T08:03:31;10.68;;;7.90;;
71236;SDS011;58984;51.960;5.582;2023-10-09T08:05:59;10.93;;;7.60;;
71236;SDS011;58984;51.960;5.582;2023-10-09T08:08:44;8.55;;;6.68;;
71236;SDS011;58984;51.960;5.582;2023-10-09T08:11:28;14.07;;;6.93;;
71236;SDS011;58984;51.960;5.582;2023-10-09T08:14:06;12.82;;;6.55;;
71236;SDS011;58984;51.960;5.582;2023-10-09T08:16:46;10.43;;;6.90;;
71236;SDS011;58984;51.960;5.582;2023-10-09T08:19:12;8.70;;;6.20;;
71236;SDS011;58984;51.960;5.582;2023-10-09T08:21:56;9.85;;;5.65;;
71236;SDS011;58984;51.960;5.582;2023-10-09T08:24:40;10.18;;;5.78;;
71236;SDS011;58984;51.960;5.582;2023-10-09T08:27:06;12.15;;;6.50;;
71236;SDS011;58984;51.960;5.582;2023-10-09T08:29:51;8.50;;;6.00;;
71236;SDS011;58984;51.960;5.582;2023-10-09T08:32:36;12.10;;;5.95;;
71236;SDS011;58984;51.960;5.582;2023-10-09T08:35:05;10.55;;;5.60;;
71236;SDS011;58984;51.960;5.582;2023-10-09T08:37:50;8.27;;;5.50;;
71236;SDS011;58984;51.960;5.582;2023-10-09T08:40:16;8.82;;;5.47;;
71236;SDS011;58984;51.960;5.582;2023-10-09T08:42:52;7.18;;;5.13;;
71236;SDS011;58984;51.960;5.582;2023-10-09T08:45:22;7.15;;;5.93;;
71236;SDS011;58984;51.960;5.582;2023-10-09T08:47:55;11.77;;;5.90;;
71236;SDS011;58984;51.960;5.582;2023-10-09T08:50:22;10.77;;;6.03;;
71236;SDS011;58984;51.960;5.582;2023-10-09T08:52:48;9.98;;;6.07;;
71236;SDS011;58984;51.960;5.582;2023-10-09T08:55:15;8.48;;;5.95;;
71236;SDS011;58984;51.960;5.582;2023-10-09T08:57:42;7.28;;;5.30;;
71236;SDS011;58984;51.960;5.582;2023-10-09T09:00:16;9.27;;;5.68;;
71236;SDS011;58984;51.960;5.582;2023-10-09T09:02:47;9.65;;;5.80;;
71236;SDS011;58984;51.960;5.582;2023-10-09T09:05:22;9.73;;;6.00;;
71236;SDS011;58984;51.960;5.582;2023-10-09T09:07:49;13.90;;;6.60;;
71236;SDS011;58984;51.960;5.582;2023-10-09T09:10:14;12.35;;;7.07;;
71236;SDS011;58984;51.960;5.582;2023-10-09T09:12:45;11.85;;;6.32;;
71236;SDS011;58984;51.960;5.582;2023-10-09T09:15:14;8.55;;;6.15;;
71236;SDS011;58984;51.960;5.582;2023-10-09T09:17:44;10.00;;;5.63;;
71236;SDS011;58984;51.960;5.582;2023-10-09T09:20:20;12.75;;;5.63;;
71236;SDS011;58984;51.960;5.582;2023-10-09T09:22:52;11.57;;;6.45;;
71236;SDS011;58984;51.960;5.582;2023-10-09T09:25:22;13.98;;;6.45;;
71236;SDS011;58984;51.960;5.582;2023-10-09T09:27:56;10.25;;;5.97;;
71236;SDS011;58984;51.960;5.582;2023-10-09T09:30:25;12.27;;;6.28;;
71236;SDS011;58984;51.960;5.582;2023-10-09T09:32:56;10.90;;;6.22;;
71236;SDS011;58984;51.960;5.582;2023-10-09T09:35:53;10.75;;;5.97;;
71236;SDS011;58984;51.960;5.582;2023-10-09T09:38:25;9.63;;;6.10;;
71236;SDS011;58984;51.960;5.582;2023-10-09T09:40:52;10.50;;;6.30;;
71236;SDS011;58984;51.960;5.582;2023-10-09T09:43:22;15.30;;;6.60;;
71236;SDS011;58984;51.960;5.582;2023-10-09T09:45:47;11.80;;;6.15;;
71236;SDS011;58984;51.960;5.582;2023-10-09T09:48:16;11.63;;;6.63;;
71236;SDS011;58984;51.960;5.582;2023-10-09T09:50:42;10.52;;;5.75;;
71236;SDS011;58984;51.960;5.582;2023-10-09T09:53:13;11.55;;;6.57;;
71236;SDS011;58984;51.960;5.582;2023-10-09T09:55:49;10.82;;;5.82;;
71236;SDS011;58984;51.960;5.582;2023-10-09T09:58:22;12.90;;;5.90;;
71236;SDS011;58984;51.960;5.582;2023-10-09T10:00:52;10.63;;;6.25;;
71236;SDS011;58984;51.960;5.582;2023-10-09T10:03:26;9.40;;;5.75;;
71236;SDS011;58984;51.960;5.582;2023-10-09T10:05:58;10.18;;;5.63;;
71236;SDS011;58984;51.960;5.582;2023-10-09T10:08:29;9.02;;;5.82;;
71236;SDS011;58984;51.960;5.582;2023-10-09T10:10:58;10.05;;;6.22;;
71236;SDS011;58984;51.960;5.582;2023-10-09T10:16:13;9.55;;;5.43;;
71236;SDS011;58984;51.960;5.582;2023-10-09T10:21:18;7.97;;;5.45;;
71236;SDS011;58984;51.960;5.582;2023-10-09T10:24:01;9.02;;;5.13;;
71236;SDS011;58984;51.960;5.582;2023-10-09T10:26:36;8.82;;;5.47;;
71236;SDS011;58984;51.960;5.582;2023-10-09T10:29:18;9.52;;;5.93;;
71236;SDS011;58984;51.960;5.582;2023-10-09T10:32:06;13.82;;;6.13;;
71236;SDS011;58984;51.960;5.582;2023-10-09T10:34:54;13.10;;;6.47;;
71236;SDS011;58984;51.960;5.582;2023-10-09T10:40:22;10.98;;;5.35;;
71236;SDS011;58984;51.960;5.582;2023-10-09T10:43:03;10.52;;;5.90;;
71236;SDS011;58984;51.960;5.582;2023-10-09T10:45:38;11.18;;;5.93;;
71236;SDS011;58984;51.960;5.582;2023-10-09T10:48:08;9.27;;;5.20;;
71236;SDS011;58984;51.960;5.582;2023-10-09T10:50:57;6.35;;;5.30;;
71236;SDS011;58984;51.960;5.582;2023-10-09T10:53:23;10.43;;;5.90;;
71236;SDS011;58984;51.960;5.582;2023-10-09T10:56:00;8.50;;;5.53;;
71236;SDS011;58984;51.960;5.582;2023-10-09T10:58:39;8.48;;;5.60;;
71236;SDS011;58984;51.960;5.582;2023-10-09T11:01:24;8.85;;;5.55;;
71236;SDS011;58984;51.960;5.582;2023-10-09T11:04:14;10.40;;;5.50;;
71236;SDS011;58984;51.960;5.582;2023-10-09T11:06:50;7.97;;;5.15;;
71236;SDS011;58984;51.960;5.582;2023-10-09T11:09:16;8.68;;;5.60;;
71236;SDS011;58984;51.960;5.582;2023-10-09T11:11:49;9.80;;;5.68;;
71236;SDS011;58984;51.960;5.582;2023-10-09T11:14:15;8.30;;;5.38;;
71236;SDS011;58984;51.960;5.582;2023-10-09T11:16:48;10.48;;;5.45;;
71236;SDS011;58984;51.960;5.582;2023-10-09T11:19:18;8.90;;;5.18;;
71236;SDS011;58984;51.960;5.582;2023-10-09T11:21:51;8.63;;;5.40;;
71236;SDS011;58984;51.960;5.582;2023-10-09T11:24:32;7.80;;;5.43;;
71236;SDS011;58984;51.960;5.582;2023-10-09T11:26:59;9.68;;;5.18;;
71236;SDS011;58984;51.960;5.582;2023-10-09T11:29:47;8.70;;;5.68;;
71236;SDS011;58984;51.960;5.582;2023-10-09T11:32:17;15.18;;;8.40;;
71236;SDS011;58984;51.960;5.582;2023-10-09T11:34:45;23.70;;;8.93;;
71236;SDS011;58984;51.960;5.582;2023-10-09T11:37:21;17.05;;;8.32;;
71236;SDS011;58984;51.960;5.582;2023-10-09T11:40:29;13.63;;;7.25;;
71236;SDS011;58984;51.960;5.582;2023-10-09T11:43:19;14.13;;;6.43;;
71236;SDS011;58984;51.960;5.582;2023-10-09T11:46:11;10.50;;;6.93;;
71236;SDS011;58984;51.960;5.582;2023-10-09T11:48:37;8.65;;;5.95;;
71236;SDS011;58984;51.960;5.582;2023-10-09T11:51:25;10.35;;;6.40;;
71236;SDS011;58984;51.960;5.582;2023-10-09T11:53:51;11.82;;;6.82;;
71236;SDS011;58984;51.960;5.582;2023-10-09T11:56:23;11.57;;;5.88;;
71236;SDS011;58984;51.960;5.582;2023-10-09T11:58:52;13.60;;;5.82;;
71236;SDS011;58984;51.960;5.582;2023-10-09T12:01:18;15.23;;;7.50;;
71236;SDS011;58984;51.960;5.582;2023-10-09T12:03:49;16.02;;;7.95;;
71236;SDS011;58984;51.960;5.582;2023-10-09T12:06:19;17.15;;;7.95;;
71236;SDS011;58984;51.960;5.582;2023-10-09T12:08:48;15.32;;;8.10;;
71236;SDS011;58984;51.960;5.582;2023-10-09T12:11:14;12.60;;;6.70;;
71236;SDS011;58984;51.960;5.582;2023-10-09T12:13:47;15.73;;;7.35;;
71236;SDS011;58984;51.960;5.582;2023-10-09T12:16:13;14.00;;;7.45;;
71236;SDS011;58984;51.960;5.582;2023-10-09T12:18:40;17.95;;;7.53;;
71236;SDS011;58984;51.960;5.582;2023-10-09T12:21:07;15.20;;;7.47;;
71236;SDS011;58984;51.960;5.582;2023-10-09T12:23:40;15.32;;;7.78;;
71236;SDS011;58984;51.960;5.582;2023-10-09T12:26:08;18.60;;;7.88;;
71236;SDS011;58984;51.960;5.582;2023-10-09T12:28:39;13.85;;;7.53;;
71236;SDS011;58984;51.960;5.582;2023-10-09T12:31:11;13.50;;;6.97;;
71236;SDS011;58984;51.960;5.582;2023-10-09T12:33:40;12.45;;;7.15;;
71236;SDS011;58984;51.960;5.582;2023-10-09T12:36:05;15.90;;;7.30;;
71236;SDS011;58984;51.960;5.582;2023-10-09T12:38:42;16.08;;;7.10;;
71236;SDS011;58984;51.960;5.582;2023-10-09T12:41:11;13.05;;;7.45;;
71236;SDS011;58984;51.960;5.582;2023-10-09T12:43:53;15.60;;;7.15;;
71236;SDS011;58984;51.960;5.582;2023-10-09T12:46:19;17.27;;;7.40;;
71236;SDS011;58984;51.960;5.582;2023-10-09T12:48:48;17.02;;;7.65;;
71236;SDS011;58984;51.960;5.582;2023-10-09T12:51:14;14.98;;;6.45;;
71236;SDS011;58984;51.960;5.582;2023-10-09T12:53:43;10.70;;;6.45;;
71236;SDS011;58984;51.960;5.582;2023-10-09T12:56:10;11.93;;;6.40;;
71236;SDS011;58984;51.960;5.582;2023-10-09T12:58:37;9.88;;;5.68;;
71236;SDS011;58984;51.960;5.582;2023-10-09T13:01:03;11.63;;;6.43;;
71236;SDS011;58984;51.960;5.582;2023-10-09T13:03:36;10.07;;;5.72;;
71236;SDS011;58984;51.960;5.582;2023-10-09T13:06:03;7.55;;;5.20;;
71236;SDS011;58984;51.960;5.582;2023-10-09T13:11:05;8.63;;;5.22;;
71236;SDS011;58984;51.960;5.582;2023-10-09T13:13:41;8.65;;;5.88;;
71236;SDS011;58984;51.960;5.582;2023-10-09T13:16:12;8.23;;;5.55;;
71236;SDS011;58984;51.960;5.582;2023-10-09T13:18:48;10.48;;;5.57;;
71236;SDS011;58984;51.960;5.582;2023-10-09T13:21:20;6.78;;;4.53;;
71236;SDS011;58984;51.960;5.582;2023-10-09T13:23:48;7.55;;;4.70;;
71236;SDS011;58984;51.960;5.582;2023-10-09T13:26:19;7.93;;;5.03;;
71236;SDS011;58984;51.960;5.582;2023-10-09T13:28:51;6.78;;;4.15;;
71236;SDS011;58984;51.960;5.582;2023-10-09T13:31:17;7.32;;;5.05;;
71236;SDS011;58984;51.960;5.582;2023-10-09T13:33:45;8.55;;;4.60;;
71236;SDS011;58984;51.960;5.582;2023-10-09T13:36:12;7.72;;;4.80;;
71236;SDS011;58984;51.960;5.582;2023-10-09T13:38:47;8.48;;;4.95;;
71236;SDS011;58984;51.960;5.582;2023-10-09T13:41:13;6.93;;;5.05;;
71236;SDS011;58984;51.960;5.582;2023-10-09T13:43:39;6.22;;;4.32;;
71236;SDS011;58984;51.960;5.582;2023-10-09T13:46:06;7.28;;;4.43;;
71236;SDS011;58984;51.960;5.582;2023-10-09T13:48:33;7.90;;;4.13;;
71236;SDS011;58984;51.960;5.582;2023-10-09T13:51:03;8.98;;;4.78;;
71236;SDS011;58984;51.960;5.582;2023-10-09T13:53:34;8.68;;;4.95;;
71236;SDS011;58984;51.960;5.582;2023-10-09T13:56:01;6.68;;;4.50;;
71236;SDS011;58984;51.960;5.582;2023-10-09T13:58:27;9.70;;;4.68;;
71236;SDS011;58984;51.960;5.582;2023-10-09T14:00:53;5.70;;;3.83;;
71236;SDS011;58984;51.960;5.582;2023-10-09T14:03:18;7.72;;;4.93;;
71236;SDS011;58984;51.960;5.582;2023-10-09T14:05:49;8.63;;;4.43;;
71236;SDS011;58984;51.960;5.582;2023-10-09T14:08:21;6.43;;;4.25;;
71236;SDS011;58984;51.960;5.582;2023-10-09T14:10:48;7.18;;;4.38;;
71236;SDS011;58984;51.960;5.582;2023-10-09T14:13:14;7.13;;;4.35;;
71236;SDS011;58984;51.960;5.582;2023-10-09T14:15:41;6.45;;;4.03;;
71236;SDS011;58984;51.960;5.582;2023-10-09T14:18:08;6.07;;;4.15;;
71236;SDS011;58984;51.960;5.582;2023-10-09T14:20:39;8.48;;;4.68;;
71236;SDS011;58984;51.960;5.582;2023-10-09T14:23:06;5.05;;;3.90;;
71236;SDS011;58984;51.960;5.582;2023-10-09T14:25:36;7.43;;;4.22;;
71236;SDS011;58984;51.960;5.582;2023-10-09T14:28:05;6.38;;;3.90;;
71236;SDS011;58984;51.960;5.582;2023-10-09T14:30:33;7.80;;;4.35;;
71236;SDS011;58984;51.960;5.582;2023-10-09T14:33:08;6.60;;;4.35;;
71236;SDS011;58984;51.960;5.582;2023-10-09T14:35:41;8.40;;;4.55;;
71236;SDS011;58984;51.960;5.582;2023-10-09T14:38:10;6.27;;;4.20;;
71236;SDS011;58984;51.960;5.582;2023-10-09T14:40:43;6.07;;;4.00;;
71236;SDS011;58984;51.960;5.582;2023-10-09T14:43:09;6.93;;;4.18;;
71236;SDS011;58984;51.960;5.582;2023-10-09T14:45:44;10.05;;;4.90;;
71236;SDS011;58984;51.960;5.582;2023-10-09T14:48:13;6.80;;;4.28;;
71236;SDS011;58984;51.960;5.582;2023-10-09T14:50:52;8.13;;;4.82;;
71236;SDS011;58984;51.960;5.582;2023-10-09T14:53:21;7.22;;;3.78;;
71236;SDS011;58984;51.960;5.582;2023-10-09T14:55:57;5.95;;;4.20;;
71236;SDS011;58984;51.960;5.582;2023-10-09T14:58:26;7.63;;;4.47;;
71236;SDS011;58984;51.960;5.582;2023-10-09T15:00:55;6.97;;;4.53;;
71236;SDS011;58984;51.960;5.582;2023-10-09T15:03:21;7.32;;;4.38;;
71236;SDS011;58984;51.960;5.582;2023-10-09T15:05:47;6.75;;;4.10;;
71236;SDS011;58984;51.960;5.582;2023-10-09T15:08:13;5.63;;;4.28;;
71236;SDS011;58984;51.960;5.582;2023-10-09T15:10:49;5.25;;;4.38;;
71236;SDS011;58984;51.960;5.582;2023-10-09T15:13:21;6.95;;;3.75;;
71236;SDS011;58984;51.960;5.582;2023-10-09T15:15:53;7.47;;;4.78;;
71236;SDS011;58984;51.960;5.582;2023-10-09T15:18:20;8.30;;;4.45;;
71236;SDS011;58984;51.960;5.582;2023-10-09T15:20:49;6.30;;;4.00;;
71236;SDS011;58984;51.960;5.582;2023-10-09T15:23:14;6.15;;;3.67;;
71236;SDS011;58984;51.960;5.582;2023-10-09T15:25:40;6.07;;;3.88;;
71236;SDS011;58984;51.960;5.582;2023-10-09T15:30:40;6.50;;;3.72;;
71236;SDS011;58984;51.960;5.582;2023-10-09T15:33:07;6.78;;;4.00;;
71236;SDS011;58984;51.960;5.582;2023-10-09T15:35:35;7.22;;;4.30;;
71236;SDS011;58984;51.960;5.582;2023-10-09T15:38:02;5.20;;;3.85;;